Time;durP1;ratioP1;P1;durP2;ratioP2;P2;SDS_P1;SDS_P2;PMS_P1;PMS_P2;Temp;Humidity;BMP_temperature;BMP_pressure;BME280_temperature;BME280_humidity;BME280_pressure;Samples;Min_cycle;Max_cycle;Signal;HPM_P1;HPM_P2
2019/10/03 00:03:59;;;;;;;2.3;1.5;;;;;;;;;;;;;
2019/10/03 00:06:20;;;;;;;2;1.6;;;;;;;;;;;;;
2019/10/03 00:08:46;;;;;;;2.5;1.7;;;;;;;;;;;;;
2019/10/03 00:11:10;;;;;;;3.3;1.7;;;;;;;;;;;;;
2019/10/03 00:13:41;;;;;;;1.9;1.5;;;;;;;;;;;;;
2019/10/03 00:16:02;;;;;;;2.5;1.4;;;;;;;;;;;;;
2019/10/03 00:18:27;;;;;;;1.8;1.2;;;;;;;;;;;;;
2019/10/03 00:20:52;;;;;;;1.7;1.3;;;;;;;;;;;;;
2019/10/03 00:23:19;;;;;;;1.8;1.1;;;;;;;;;;;;;
2019/10/03 00:25:44;;;;;;;1.5;1.1;;;;;;;;;;;;;
2019/10/03 00:28:12;;;;;;;2.1;1.2;;;;;;;;;;;;;
2019/10/03 00:30:39;;;;;;;2;1.2;;;;;;;;;;;;;
2019/10/03 00:33:03;;;;;;;2.7;1.3;;;;;;;;;;;;;
2019/10/03 00:35:34;;;;;;;1.4;1.3;;;;;;;;;;;;;
2019/10/03 00:37:56;;;;;;;4.4;1.2;;;;;;;;;;;;;
2019/10/03 00:40:20;;;;;;;2.5;1.4;;;;;;;;;;;;;
2019/10/03 00:42:44;;;;;;;1.5;1.1;;;;;;;;;;;;;
2019/10/03 00:45:10;;;;;;;2.1;1.2;;;;;;;;;;;;;
2019/10/03 00:47:37;;;;;;;1.8;1.2;;;;;;;;;;;;;
2019/10/03 00:50:02;;;;;;;2.3;1.3;;;;;;;;;;;;;
2019/10/03 00:52:33;;;;;;;1.9;1.4;;;;;;;;;;;;;
2019/10/03 00:54:58;;;;;;;3.2;1.3;;;;;;;;;;;;;
2019/10/03 00:57:25;;;;;;;2.3;1.4;;;;;;;;;;;;;
2019/10/03 00:59:49;;;;;;;2;1.3;;;;;;;;;;;;;
2019/10/03 01:02:14;;;;;;;1.6;1.5;;;;;;;;;;;;;
2019/10/03 01:04:37;;;;;;;1.5;1.4;;;;;;;;;;;;;
2019/10/03 01:07:03;;;;;;;2;1.3;;;;;;;;;;;;;
2019/10/03 01:09:31;;;;;;;2.9;1.5;;;;;;;;;;;;;
2019/10/03 01:12:05;;;;;;;2.1;1.6;;;;;;;;;;;;;
2019/10/03 01:14:30;;;;;;;1.2;1.1;;;;;;;;;;;;;
2019/10/03 01:16:59;;;;;;;2;1.4;;;;;;;;;;;;;
2019/10/03 01:19:22;;;;;;;2.5;1.6;;;;;;;;;;;;;
2019/10/03 01:21:47;;;;;;;2;1.5;;;;;;;;;;;;;
2019/10/03 01:24:12;;;;;;;2.2;1.5;;;;;;;;;;;;;
2019/10/03 01:26:50;;;;;;;2;1.8;;;;;;;;;;;;;
2019/10/03 01:29:03;;;;;;;2.2;1.6;;;;;;;;;;;;;
2019/10/03 01:31:28;;;;;;;2.5;2;;;;;;;;;;;;;
2019/10/03 01:33:55;;;;;;;3.8;2.4;;;;;;;;;;;;;
2019/10/03 01:36:19;;;;;;;2.2;2;;;;;;;;;;;;;
2019/10/03 01:38:43;;;;;;;3.8;2.2;;;;;;;;;;;;;
2019/10/03 01:41:09;;;;;;;2.3;2.1;;;;;;;;;;;;;
2019/10/03 01:43:38;;;;;;;2.4;2.2;;;;;;;;;;;;;
2019/10/03 01:46:01;;;;;;;2.5;1.8;;;;;;;;;;;;;
2019/10/03 01:48:25;;;;;;;2.9;2.2;;;;;;;;;;;;;
2019/10/03 01:51:05;;;;;;;2.5;2.3;;;;;;;;;;;;;
2019/10/03 01:53:16;;;;;;;3;2.6;;;;;;;;;;;;;
2019/10/03 01:55:42;;;;;;;4;2.7;;;;;;;;;;;;;
2019/10/03 01:58:06;;;;;;;3.7;2.9;;;;;;;;;;;;;
2019/10/03 02:00:30;;;;;;;4.2;2.9;;;;;;;;;;;;;
2019/10/03 02:02:58;;;;;;;3.2;2.8;;;;;;;;;;;;;
2019/10/03 02:05:21;;;;;;;4;2.5;;;;;;;;;;;;;
2019/10/03 02:07:48;;;;;;;2.6;2.4;;;;;;;;;;;;;
2019/10/03 02:10:14;;;;;;;2.3;2;;;;;;;;;;;;;
2019/10/03 02:12:38;;;;;;;2.5;2.2;;;;;;;;;;;;;
2019/10/03 02:15:01;;;;;;;2.6;2.4;;;;;;;;;;;;;
2019/10/03 02:17:26;;;;;;;3.2;2.7;;;;;;;;;;;;;
2019/10/03 02:19:52;;;;;;;3.4;2.8;;;;;;;;;;;;;
2019/10/03 02:22:29;;;;;;;2.6;2.4;;;;;;;;;;;;;
2019/10/03 02:24:42;;;;;;;4.7;2.7;;;;;;;;;;;;;
2019/10/03 02:27:09;;;;;;;3.5;2.9;;;;;;;;;;;;;
2019/10/03 02:29:38;;;;;;;3.3;3;;;;;;;;;;;;;
2019/10/03 02:32:04;;;;;;;4.4;3.2;;;;;;;;;;;;;
2019/10/03 02:34:29;;;;;;;3.7;2.7;;;;;;;;;;;;;
2019/10/03 02:36:56;;;;;;;4.4;3.2;;;;;;;;;;;;;
2019/10/03 02:39:28;;;;;;;3.6;3.1;;;;;;;;;;;;;
2019/10/03 02:41:53;;;;;;;4;3;;;;;;;;;;;;;
2019/10/03 02:44:18;;;;;;;2.8;2.6;;;;;;;;;;;;;
2019/10/03 02:46:43;;;;;;;4.9;2.7;;;;;;;;;;;;;
2019/10/03 02:49:16;;;;;;;2.8;2.4;;;;;;;;;;;;;
2019/10/03 02:51:44;;;;;;;3.8;3;;;;;;;;;;;;;
2019/10/03 02:54:07;;;;;;;3;2.7;;;;;;;;;;;;;
2019/10/03 02:56:32;;;;;;;4.6;2.9;;;;;;;;;;;;;
2019/10/03 02:58:57;;;;;;;5.4;2.2;;;;;;;;;;;;;
2019/10/03 03:01:24;;;;;;;2.9;1.9;;;;;;;;;;;;;
2019/10/03 03:03:49;;;;;;;3.8;2.8;;;;;;;;;;;;;
2019/10/03 03:06:13;;;;;;;3.5;2.8;;;;;;;;;;;;;
2019/10/03 03:08:38;;;;;;;3;2.7;;;;;;;;;;;;;
2019/10/03 03:11:04;;;;;;;3.4;2.4;;;;;;;;;;;;;
2019/10/03 03:13:29;;;;;;;4.4;2.8;;;;;;;;;;;;;
2019/10/03 03:15:53;;;;;;;4;2.8;;;;;;;;;;;;;
2019/10/03 03:18:21;;;;;;;6.1;3.2;;;;;;;;;;;;;
2019/10/03 03:21:13;;;;;;;5;2.4;;;;;;;;;;;;;
2019/10/03 03:23:39;;;;;;;3.2;2;;;;;;;;;;;;;
2019/10/03 03:27:18;;;;;;;3.7;2.3;;;;;;;;;;;;;
2019/10/03 03:29:35;;;;;;;2.7;2.1;;;;;;;;;;;;;
2019/10/03 03:31:59;;;;;;;3.2;2.3;;;;;;;;;;;;;
2019/10/03 03:34:24;;;;;;;3;2.3;;;;;;;;;;;;;
2019/10/03 03:36:49;;;;;;;3.4;2.5;;;;;;;;;;;;;
2019/10/03 03:39:19;;;;;;;3;2.6;;;;;;;;;;;;;
2019/10/03 03:41:43;;;;;;;3.3;2.5;;;;;;;;;;;;;
2019/10/03 03:44:11;;;;;;;3;2.3;;;;;;;;;;;;;
2019/10/03 03:46:37;;;;;;;2.8;2.4;;;;;;;;;;;;;
2019/10/03 03:49:03;;;;;;;3.3;2.6;;;;;;;;;;;;;
2019/10/03 03:51:40;;;;;;;2.9;2.6;;;;;;;;;;;;;
2019/10/03 03:53:57;;;;;;;4.4;2.5;;;;;;;;;;;;;
2019/10/03 03:56:22;;;;;;;3;2.5;;;;;;;;;;;;;
2019/10/03 03:58:53;;;;;;;2.9;2.6;;;;;;;;;;;;;
2019/10/03 04:02:34;;;;;;;3;2.4;;;;;;;7.83;84.74512;939.1649;;;;
2019/10/03 04:05:02;;;;;;;3.1;2.8;;;;;;;7.79;86.18848;939.1266;;;;
2019/10/03 04:07:29;;;;;;;3.7;3.3;;;;;;;7.77;86.94531;939.2482;;;;
2019/10/03 04:10:14;;;;;;;5.2;3.3;;;;;;;7.85;86.21289;939.2422;;;;
2019/10/03 04:12:39;;;;;;;3.7;3.1;;;;;;;7.97;86.80371;939.3136;;;;
2019/10/03 04:15:04;;;;;;;5;3.2;;;;;;;8.01;86.17676;939.2974;;;;
2019/10/03 04:17:35;;;;;;;3.8;3.2;;;;;;;8.09;86.03223;939.2236;;;;
2019/10/03 04:20:03;;;;;;;5.4;3.2;;;;;;;8.07;85.17773;939.2715;;;;
2019/10/03 04:22:28;;;;;;;4.4;3.2;;;;;;;8.03;85.14746;939.2764;;;;
2019/10/03 04:24:52;;;;;;;4.2;3.5;;;;;;;8.02;85.99512;939.2372;;;;
2019/10/03 04:27:21;;;;;;;3.7;3.2;;;;;;;8.05;85.23242;939.2047;;;;
2019/10/03 04:29:44;;;;;;;4.5;3.3;;;;;;;8.06;86.15234;939.2991;;;;
2019/10/03 04:32:10;;;;;;;4.2;2.7;;;;;;;8.07;84.81445;939.3477;;;;
2019/10/03 04:34:43;;;;;;;4;3;;;;;;;8.06;85.49414;939.3635;;;;
2019/10/03 04:37:08;;;;;;;4.2;3.1;;;;;;;7.95;85.2793;939.4394;;;;
2019/10/03 04:39:37;;;;;;;4.5;3.8;;;;;;;7.68;86.06445;939.43;;;;
2019/10/03 04:42:06;;;;;;;4.1;3.4;;;;;;;7.7;86.15918;939.4487;;;;
2019/10/03 04:44:36;;;;;;;4.2;3.1;;;;;;;7.8;85.76074;939.4874;;;;
2019/10/03 04:47:10;;;;;;;4.7;3;;;;;;;7.86;85.25;939.5064;;;;
2019/10/03 04:49:41;;;;;;;4.2;3.6;;;;;;;7.89;85.1875;939.5101;;;;
2019/10/03 04:52:11;;;;;;;5;4.1;;;;;;;7.97;85.73633;939.6142;;;;
2019/10/03 04:54:38;;;;;;;4.1;3.7;;;;;;;8.01;84.90625;939.655;;;;
2019/10/03 04:57:09;;;;;;;5.5;3.4;;;;;;;8.05;85.45801;939.6541;;;;
2019/10/03 04:59:39;;;;;;;4.7;3.8;;;;;;;8.06;86.0957;939.66;;;;
2019/10/03 05:02:13;;;;;;;5.1;3.3;;;;;;;8.08;85.38379;939.7405;;;;
2019/10/03 05:05:38;;;;;;;6.8;4;;;;;;;8.15;86.02246;939.7935;;;;
2019/10/03 05:07:16;;;;;;;4.9;4.3;;;;;;;8.15;85.73828;939.8038;;;;
2019/10/03 05:09:31;;;;;;;3.5;3.2;;;;;;;8.15;84.09277;939.7697;;;;
2019/10/03 05:11:58;;;;;;;4.4;3.3;;;;;;;8.09;84.25;939.7519;;;;
2019/10/03 05:14:37;;;;;;;4.9;4.3;;;;;;;8.09;86.48633;939.7764;;;;
2019/10/03 05:17:12;;;;;;;4.3;3.9;;;;;;;8.15;85.875;939.7824;;;;
2019/10/03 05:19:44;;;;;;;4.8;3.9;;;;;;;8.06;85.67578;939.821;;;;
2019/10/03 05:22:12;;;;;;;3.4;2.2;;;;;;;8.03;82.60547;939.8441;;;;
2019/10/03 05:24:50;;;;;;;3.8;2.9;;;;;;;8.1;83.86816;939.8369;;;;
2019/10/03 05:27:19;;;;;;;3.5;2.6;;;;;;;8.12;84.48438;939.8159;;;;
2019/10/03 05:29:43;;;;;;;3.6;2.5;;;;;;;;;;;;;
2019/10/03 05:32:08;;;;;;;4.2;3.8;;;;;;;;;;;;;
2019/10/03 05:34:33;;;;;;;4;3.6;;;;;;;;;;;;;
2019/10/03 05:36:59;;;;;;;4.9;4.4;;;;;;;;;;;;;
2019/10/03 05:39:23;;;;;;;5.1;4.2;;;;;;;;;;;;;
2019/10/03 05:41:49;;;;;;;5;3.9;;;;;;;;;;;;;
2019/10/03 05:44:20;;;;;;;3.9;3.4;;;;;;;;;;;;;
2019/10/03 05:46:53;;;;;;;5.4;3.9;;;;;;;;;;;;;
2019/10/03 05:49:17;;;;;;;5.4;3.7;;;;;;;;;;;;;
2019/10/03 05:51:49;;;;;;;6.2;4.3;;;;;;;;;;;;;
2019/10/03 05:54:13;;;;;;;4.4;4;;;;;;;;;;;;;
2019/10/03 05:56:36;;;;;;;4.3;3.9;;;;;;;;;;;;;
2019/10/03 05:59:07;;;;;;;4.9;4.5;;;;;;;;;;;;;
2019/10/03 06:01:32;;;;;;;5;4.6;;;;;;;;;;;;;
2019/10/03 06:04:02;;;;;;;5.4;4.9;;;;;;;;;;;;;
2019/10/03 06:06:29;;;;;;;6.1;5.2;;;;;;;;;;;;;
2019/10/03 06:08:49;;;;;;;4.9;4.4;;;;;;;;;;;;;
2019/10/03 06:11:14;;;;;;;5.5;4.7;;;;;;;;;;;;;
2019/10/03 06:13:43;;;;;;;5.7;5;;;;;;;;;;;;;
2019/10/03 06:16:08;;;;;;;5.8;5.2;;;;;;;;;;;;;
2019/10/03 06:18:38;;;;;;;4.1;3.7;;;;;;;;;;;;;
2019/10/03 06:21:00;;;;;;;4.4;4;;;;;;;;;;;;;
2019/10/03 06:23:25;;;;;;;5.6;5.1;;;;;;;;;;;;;
2019/10/03 06:25:59;;;;;;;6.4;5.3;;;;;;;;;;;;;
2019/10/03 06:28:28;;;;;;;6.3;5.7;;;;;;;;;;;;;
2019/10/03 06:30:54;;;;;;;6.1;5.5;;;;;;;;;;;;;
2019/10/03 06:33:30;;;;;;;6;4.5;;;;;;;;;;;;;
2019/10/03 06:35:48;;;;;;;7.5;5;;;;;;;;;;;;;
2019/10/03 06:38:13;;;;;;;4.6;4;;;;;;;;;;;;;
2019/10/03 06:40:46;;;;;;;4.4;3.1;;;;;;;;;;;;;
2019/10/03 06:43:14;;;;;;;3.8;3.4;;;;;;;;;;;;;
2019/10/03 06:45:38;;;;;;;3.8;3;;;;;;;;;;;;;
2019/10/03 06:48:04;;;;;;;3.7;2.8;;;;;;;;;;;;;
2019/10/03 06:50:35;;;;;;;3.4;3.1;;;;;;;;;;;;;
2019/10/03 06:52:56;;;;;;;4.1;3.1;;;;;;;;;;;;;
2019/10/03 06:55:24;;;;;;;4.9;3.5;;;;;;;;;;;;;
2019/10/03 06:57:52;;;;;;;5.1;3.4;;;;;;;;;;;;;
2019/10/03 07:00:16;;;;;;;4;3.2;;;;;;;;;;;;;
2019/10/03 07:02:39;;;;;;;3.9;3.5;;;;;;;;;;;;;
2019/10/03 07:05:04;;;;;;;4.3;2.9;;;;;;;;;;;;;
2019/10/03 07:07:37;;;;;;;3.3;2.5;;;;;;;;;;;;;
2019/10/03 07:09:58;;;;;;;2.8;2.5;;;;;;;;;;;;;
2019/10/03 07:12:24;;;;;;;2.8;2.5;;;;;;;;;;;;;
2019/10/03 07:14:53;;;;;;;2.9;2.3;;;;;;;;;;;;;
2019/10/03 07:17:20;;;;;;;2.7;2.1;;;;;;;;;;;;;
2019/10/03 07:19:45;;;;;;;2.1;1.4;;;;;;;;;;;;;
2019/10/03 07:22:10;;;;;;;1.8;1.2;;;;;;;;;;;;;
2019/10/03 07:24:35;;;;;;;1.7;1.5;;;;;;;;;;;;;
2019/10/03 07:27:05;;;;;;;2.4;1.3;;;;;;;;;;;;;
2019/10/03 07:29:29;;;;;;;2.7;1.4;;;;;;;;;;;;;
2019/10/03 07:34:38;;;;;;;3.4;1.5;;;;;;;;;;;;;
2019/10/03 07:36:49;;;;;;;4.3;1.1;;;;;;;;;;;;;
2019/10/03 07:39:20;;;;;;;2;1.2;;;;;;;;;;;;;
2019/10/03 07:41:44;;;;;;;1.6;1.2;;;;;;;;;;;;;
2019/10/03 07:44:06;;;;;;;1.8;1;;;;;;;;;;;;;
2019/10/03 07:46:37;;;;;;;1.6;0.9;;;;;;;;;;;;;
2019/10/03 07:49:04;;;;;;;1.5;1;;;;;;;;;;;;;
2019/10/03 07:51:34;;;;;;;2.3;0.9;;;;;;;;;;;;;
2019/10/03 07:54:28;;;;;;;1.3;0.8;;;;;;;;;;;;;
2019/10/03 07:59:24;;;;;;;0.9;0.7;;;;;;;;;;;;;
2019/10/03 08:02:03;;;;;;;1.2;0.6;;;;;;;;;;;;;
2019/10/03 08:04:32;;;;;;;1.7;0.9;;;;;;;;;;;;;
2019/10/03 08:06:58;;;;;;;0.9;0.7;;;;;;;;;;;;;
2019/10/03 08:09:28;;;;;;;0.8;0.7;;;;;;;;;;;;;
2019/10/03 08:11:53;;;;;;;0.9;0.7;;;;;;;;;;;;;
2019/10/03 08:14:28;;;;;;;2.5;0.8;;;;;;;;;;;;;
2019/10/03 08:22:01;;;;;;;2.2;0.9;;;;;;;;;;;;;
2019/10/03 08:24:23;;;;;;;2.4;0.8;;;;;;;;;;;;;
2019/10/03 08:29:21;;;;;;;1.5;0.9;;;;;;;;;;;;;
2019/10/03 08:31:46;;;;;;;1.3;0.8;;;;;;;;;;;;;
2019/10/03 08:34:11;;;;;;;1.7;1;;;;;;;;;;;;;
2019/10/03 08:36:40;;;;;;;2.7;1.4;;;;;;;;;;;;;
2019/10/03 08:39:03;;;;;;;1.4;1;;;;;;;;;;;;;
2019/10/03 08:41:28;;;;;;;3.5;1.4;;;;;;;;;;;;;
2019/10/03 08:43:53;;;;;;;2.5;1.3;;;;;;;;;;;;;
2019/10/03 08:46:19;;;;;;;2.9;1.4;;;;;;;;;;;;;
2019/10/03 08:48:44;;;;;;;3.7;1.6;;;;;;;;;;;;;
2019/10/03 08:51:08;;;;;;;3;1.7;;;;;;;;;;;;;
2019/10/03 08:53:33;;;;;;;3.7;1.7;;;;;;;;;;;;;
2019/10/03 08:56:00;;;;;;;2.6;1.5;;;;;;;;;;;;;
2019/10/03 08:58:28;;;;;;;2.5;1.1;;;;;;;;;;;;;
2019/10/03 09:00:50;;;;;;;1.6;1;;;;;;;;;;;;;
2019/10/03 09:03:57;;;;;;;2;1.1;;;;;;;;;;;;;
2019/10/03 09:05:44;;;;;;;1.8;1.3;;;;;;;;;;;;;
2019/10/03 09:08:05;;;;;;;2.1;1.2;;;;;;;;;;;;;
2019/10/03 09:10:31;;;;;;;2.9;1.3;;;;;;;;;;;;;
2019/10/03 09:12:55;;;;;;;2.2;1;;;;;;;;;;;;;
2019/10/03 09:15:22;;;;;;;2.5;1.3;;;;;;;;;;;;;
2019/10/03 09:17:46;;;;;;;1.4;1;;;;;;;;;;;;;
2019/10/03 09:20:13;;;;;;;2.6;1.1;;;;;;;;;;;;;
2019/10/03 09:22:40;;;;;;;2.3;0.9;;;;;;;;;;;;;
2019/10/03 09:25:05;;;;;;;2.1;0.9;;;;;;;;;;;;;
2019/10/03 09:27:30;;;;;;;1.8;0.9;;;;;;;;;;;;;
2019/10/03 09:29:54;;;;;;;2.2;1;;;;;;;;;;;;;
2019/10/03 09:32:21;;;;;;;2.6;1;;;;;;;;;;;;;
2019/10/03 09:34:50;;;;;;;1.7;0.9;;;;;;;;;;;;;
2019/10/03 09:37:21;;;;;;;3;0.9;;;;;;;;;;;;;
2019/10/03 09:39:40;;;;;;;2.3;0.9;;;;;;;;;;;;;
2019/10/03 09:42:06;;;;;;;2.4;0.9;;;;;;;;;;;;;
2019/10/03 09:44:31;;;;;;;1.9;1.1;;;;;;;;;;;;;
2019/10/03 09:47:02;;;;;;;2.8;1;;;;;;;;;;;;;
2019/10/03 09:49:22;;;;;;;2.6;0.9;;;;;;;;;;;;;
2019/10/03 09:51:45;;;;;;;1.7;0.8;;;;;;;;;;;;;
2019/10/03 09:54:14;;;;;;;2.3;1;;;;;;;;;;;;;
2019/10/03 09:56:38;;;;;;;1.7;1.1;;;;;;;;;;;;;
2019/10/03 09:59:03;;;;;;;2.8;0.9;;;;;;;;;;;;;
2019/10/03 10:01:27;;;;;;;2;1;;;;;;;;;;;;;
2019/10/03 10:03:53;;;;;;;2.1;1.1;;;;;;;;;;;;;
2019/10/03 10:06:25;;;;;;;2.9;1;;;;;;;;;;;;;
2019/10/03 10:08:53;;;;;;;3;1;;;;;;;;;;;;;
2019/10/03 10:11:19;;;;;;;3.2;2.2;;;;;;;;;;;;;
2019/10/03 10:13:44;;;;;;;1.7;1;;;;;;;;;;;;;
2019/10/03 10:16:23;;;;;;;6.7;3.1;;;;;;;;;;;;;
2019/10/03 10:18:57;;;;;;;2.5;1.1;;;;;;;;;;;;;
2019/10/03 10:21:12;;;;;;;2.8;0.9;;;;;;;;;;;;;
2019/10/03 10:23:45;;;;;;;4.7;1.4;;;;;;;;;;;;;
2019/10/03 10:26:07;;;;;;;2.1;1.2;;;;;;;;;;;;;
2019/10/03 10:28:38;;;;;;;2.8;1;;;;;;;;;;;;;
2019/10/03 10:31:08;;;;;;;3.1;1.1;;;;;;;;;;;;;
2019/10/03 10:33:35;;;;;;;1.9;0.9;;;;;;;;;;;;;
2019/10/03 10:36:05;;;;;;;1.9;0.9;;;;;;;;;;;;;
2019/10/03 10:38:30;;;;;;;2.4;1.1;;;;;;;;;;;;;
2019/10/03 10:40:58;;;;;;;3.8;1.1;;;;;;;;;;;;;
2019/10/03 10:43:23;;;;;;;1.8;1;;;;;;;;;;;;;
2019/10/03 10:45:47;;;;;;;2.3;1.1;;;;;;;;;;;;;
2019/10/03 10:48:11;;;;;;;3.4;1.4;;;;;;;;;;;;;
2019/10/03 10:50:40;;;;;;;2.8;1;;;;;;;;;;;;;
2019/10/03 10:53:04;;;;;;;1.4;0.9;;;;;;;;;;;;;
2019/10/03 10:55:29;;;;;;;2.8;1.3;;;;;;;;;;;;;
2019/10/03 10:58:00;;;;;;;2.2;1.3;;;;;;;;;;;;;
2019/10/03 11:00:25;;;;;;;2;1;;;;;;;;;;;;;
2019/10/03 11:02:45;;;;;;;2.1;0.7;;;;;;;;;;;;;
2019/10/03 11:05:09;;;;;;;1.4;0.7;;;;;;;;;;;;;
2019/10/03 11:07:36;;;;;;;1.1;0.7;;;;;;;;;;;;;
2019/10/03 11:10:04;;;;;;;1.5;0.7;;;;;;;;;;;;;
2019/10/03 11:12:28;;;;;;;1.9;0.9;;;;;;;;;;;;;
2019/10/03 11:14:50;;;;;;;2.2;0.8;;;;;;;;;;;;;
2019/10/03 11:17:22;;;;;;;1.2;0.8;;;;;;;;;;;;;
2019/10/03 11:20:14;;;;;;;1.5;0.9;;;;;;;;;;;;;
2019/10/03 11:23:12;;;;;;;1;0.6;;;;;;;;;;;;;
2019/10/03 11:25:26;;;;;;;1;0.5;;;;;;;;;;;;;
2019/10/03 11:27:54;;;;;;;1.8;0.7;;;;;;;;;;;;;
2019/10/03 11:30:19;;;;;;;1.3;0.8;;;;;;;;;;;;;
2019/10/03 11:32:42;;;;;;;1.4;0.7;;;;;;;;;;;;;
2019/10/03 11:35:11;;;;;;;1.4;0.7;;;;;;;;;;;;;
2019/10/03 11:37:40;;;;;;;1.6;0.8;;;;;;;;;;;;;
2019/10/03 11:39:59;;;;;;;1;0.7;;;;;;;;;;;;;
2019/10/03 11:42:25;;;;;;;1.5;0.7;;;;;;;;;;;;;
2019/10/03 11:45:15;;;;;;;1.5;0.6;;;;;;;;;;;;;
2019/10/03 11:47:27;;;;;;;1.1;0.6;;;;;;;;;;;;;
2019/10/03 11:49:57;;;;;;;1;0.6;;;;;;;;;;;;;
2019/10/03 11:52:23;;;;;;;1.3;0.5;;;;;;;;;;;;;
2019/10/03 11:54:47;;;;;;;1.2;0.6;;;;;;;;;;;;;
2019/10/03 11:57:12;;;;;;;0.8;0.5;;;;;;;;;;;;;
2019/10/03 11:59:40;;;;;;;0.9;0.5;;;;;;;;;;;;;
2019/10/03 12:02:06;;;;;;;0.9;0.6;;;;;;;;;;;;;
2019/10/03 12:04:33;;;;;;;1.4;0.6;;;;;;;;;;;;;
2019/10/03 12:06:59;;;;;;;0.7;0.4;;;;;;;;;;;;;
2019/10/03 12:09:23;;;;;;;2.2;0.7;;;;;;;;;;;;;
2019/10/03 12:11:47;;;;;;;1;0.5;;;;;;;;;;;;;
2019/10/03 12:14:15;;;;;;;1;0.5;;;;;;;;;;;;;
2019/10/03 12:16:39;;;;;;;0.6;0.5;;;;;;;;;;;;;
2019/10/03 12:19:08;;;;;;;0.5;0.4;;;;;;;;;;;;;
2019/10/03 12:21:33;;;;;;;1.1;0.6;;;;;;;;;;;;;
2019/10/03 12:23:53;;;;;;;0.6;0.4;;;;;;;;;;;;;
2019/10/03 12:26:18;;;;;;;0.9;0.6;;;;;;;;;;;;;
2019/10/03 12:28:42;;;;;;;1.3;0.6;;;;;;;;;;;;;
2019/10/03 12:31:20;;;;;;;0.7;0.5;;;;;;;;;;;;;
2019/10/03 12:33:43;;;;;;;2.1;0.6;;;;;;;;;;;;;
2019/10/03 12:36:16;;;;;;;0.8;0.4;;;;;;;;;;;;;
2019/10/03 12:38:45;;;;;;;0.8;0.4;;;;;;;;;;;;;
2019/10/03 12:41:11;;;;;;;1;0.5;;;;;;;;;;;;;
2019/10/03 12:43:36;;;;;;;1.1;0.5;;;;;;;;;;;;;
2019/10/03 12:46:01;;;;;;;0.7;0.5;;;;;;;;;;;;;
2019/10/03 12:48:29;;;;;;;0.7;0.4;;;;;;;;;;;;;
2019/10/03 12:50:56;;;;;;;1;0.5;;;;;;;;;;;;;
2019/10/03 12:53:20;;;;;;;1.1;0.5;;;;;;;;;;;;;
2019/10/03 12:58:13;;;;;;;1.5;0.5;;;;;;;;;;;;;
2019/10/03 13:00:39;;;;;;;1.1;0.5;;;;;;;;;;;;;
2019/10/03 13:03:08;;;;;;;0.7;0.5;;;;;;;;;;;;;
2019/10/03 13:05:33;;;;;;;1.7;0.5;;;;;;;;;;;;;
2019/10/03 13:07:57;;;;;;;0.9;0.5;;;;;;;;;;;;;
2019/10/03 13:10:23;;;;;;;0.9;0.5;;;;;;;;;;;;;
2019/10/03 13:15:17;;;;;;;1.2;0.5;;;;;;;;;;;;;
2019/10/03 13:17:46;;;;;;;3.1;0.5;;;;;;;;;;;;;
2019/10/03 13:20:09;;;;;;;0.9;0.4;;;;;;;;;;;;;
2019/10/03 13:22:33;;;;;;;1.6;0.6;;;;;;;;;;;;;
2019/10/03 13:24:57;;;;;;;0.9;0.4;;;;;;;;;;;;;
2019/10/03 13:27:31;;;;;;;1;0.5;;;;;;;;;;;;;
2019/10/03 13:29:49;;;;;;;1;0.5;;;;;;;;;;;;;
2019/10/03 13:32:15;;;;;;;0.9;0.6;;;;;;;;;;;;;
2019/10/03 13:34:38;;;;;;;1.7;0.7;;;;;;;;;;;;;
2019/10/03 13:37:11;;;;;;;1.6;0.7;;;;;;;;;;;;;
2019/10/03 13:39:29;;;;;;;0.8;0.6;;;;;;;;;;;;;
2019/10/03 13:41:53;;;;;;;1.3;0.7;;;;;;;;;;;;;
2019/10/03 13:44:17;;;;;;;1.3;0.6;;;;;;;;;;;;;
2019/10/03 13:46:43;;;;;;;1.1;0.6;;;;;;;;;;;;;
2019/10/03 13:49:10;;;;;;;1;0.5;;;;;;;;;;;;;
2019/10/03 13:51:34;;;;;;;1.6;0.7;;;;;;;;;;;;;
2019/10/03 13:53:59;;;;;;;2.3;0.6;;;;;;;;;;;;;
2019/10/03 13:56:23;;;;;;;1.9;0.6;;;;;;;;;;;;;
2019/10/03 14:01:34;;;;;;;1.9;0.6;;;;;;;;;;;;;
2019/10/03 14:03:49;;;;;;;1.4;0.7;;;;;;;;;;;;;
2019/10/03 14:11:08;;;;;;;1.3;0.7;;;;;;;;;;;;;
2019/10/03 14:13:30;;;;;;;1.4;0.5;;;;;;;;;;;;;
2019/10/03 14:15:55;;;;;;;1.2;0.7;;;;;;;;;;;;;
2019/10/03 14:18:20;;;;;;;1.4;0.5;;;;;;;;;;;;;
2019/10/03 14:20:47;;;;;;;1.2;0.6;;;;;;;;;;;;;
2019/10/03 14:23:14;;;;;;;1.6;0.7;;;;;;;;;;;;;
2019/10/03 14:25:36;;;;;;;0.8;0.5;;;;;;;;;;;;;
2019/10/03 14:28:02;;;;;;;1.3;0.6;;;;;;;;;;;;;
2019/10/03 14:30:31;;;;;;;1.1;0.7;;;;;;;;;;;;;
2019/10/03 14:33:16;;;;;;;1.7;0.8;;;;;;;;;;;;;
2019/10/03 14:35:29;;;;;;;2.2;0.6;;;;;;;;;;;;;
2019/10/03 14:38:00;;;;;;;2.7;0.8;;;;;;;;;;;;;
2019/10/03 14:40:21;;;;;;;1.9;0.6;;;;;;;;;;;;;
2019/10/03 14:42:48;;;;;;;1.4;0.6;;;;;;;;;;;;;
2019/10/03 14:45:10;;;;;;;1.1;0.7;;;;;;;;;;;;;
2019/10/03 14:47:44;;;;;;;0.8;0.6;;;;;;;;;;;;;
2019/10/03 14:50:22;;;;;;;0.9;0.7;;;;;;;;;;;;;
2019/10/03 14:52:47;;;;;;;1.6;0.8;;;;;;;;;;;;;
2019/10/03 14:55:11;;;;;;;2.2;0.8;;;;;;;;;;;;;
2019/10/03 14:57:38;;;;;;;1;0.7;;;;;;;;;;;;;
2019/10/03 15:00:06;;;;;;;1.3;0.6;;;;;;;;;;;;;
2019/10/03 15:02:28;;;;;;;2.2;0.8;;;;;;;;;;;;;
2019/10/03 15:04:53;;;;;;;1.3;0.6;;;;;;;;;;;;;
2019/10/03 15:07:23;;;;;;;2;0.7;;;;;;;;;;;;;
2019/10/03 15:09:46;;;;;;;1.5;0.8;;;;;;;;;;;;;
2019/10/03 15:12:10;;;;;;;3.7;1.2;;;;;;;;;;;;;
2019/10/03 15:14:43;;;;;;;1.5;0.9;;;;;;;;;;;;;
2019/10/03 15:17:15;;;;;;;2;0.8;;;;;;;;;;;;;
2019/10/03 15:19:29;;;;;;;2.3;0.9;;;;;;;;;;;;;
2019/10/03 15:21:59;;;;;;;2.1;1;;;;;;;;;;;;;
2019/10/03 15:24:26;;;;;;;2.2;1.1;;;;;;;;;;;;;
2019/10/03 15:26:59;;;;;;;2.8;1.6;;;;;;;;;;;;;
2019/10/03 15:29:30;;;;;;;2.3;1.5;;;;;;;;;;;;;
2019/10/03 15:31:53;;;;;;;4;2.2;;;;;;;;;;;;;
2019/10/03 15:34:13;;;;;;;4.1;1.9;;;;;;;;;;;;;
2019/10/03 15:36:44;;;;;;;4;1.8;;;;;;;;;;;;;
2019/10/03 15:39:03;;;;;;;2.6;1.4;;;;;;;;;;;;;
2019/10/03 15:41:29;;;;;;;3;1.7;;;;;;;;;;;;;
2019/10/03 15:43:54;;;;;;;4.9;2.2;;;;;;;;;;;;;
2019/10/03 15:46:18;;;;;;;3.5;1.3;;;;;;;;;;;;;
2019/10/03 15:48:49;;;;;;;1.6;1;;;;;;;;;;;;;
2019/10/03 15:51:15;;;;;;;1.6;1;;;;;;;;;;;;;
2019/10/03 15:53:39;;;;;;;1.9;0.9;;;;;;;;;;;;;
2019/10/03 15:56:04;;;;;;;1.3;0.9;;;;;;;;;;;;;
2019/10/03 15:58:30;;;;;;;3.4;1;;;;;;;;;;;;;
2019/10/03 16:00:54;;;;;;;2.8;0.9;;;;;;;;;;;;;
2019/10/03 16:03:20;;;;;;;2.7;1;;;;;;;;;;;;;
2019/10/03 16:05:50;;;;;;;3.3;1.1;;;;;;;;;;;;;
2019/10/03 16:08:12;;;;;;;3.1;0.9;;;;;;;;;;;;;
2019/10/03 16:10:37;;;;;;;2.5;1.2;;;;;;;;;;;;;
2019/10/03 16:13:03;;;;;;;1.4;1;;;;;;;;;;;;;
2019/10/03 16:15:27;;;;;;;2.4;1.1;;;;;;;;;;;;;
2019/10/03 16:17:53;;;;;;;2.6;1;;;;;;;;;;;;;
2019/10/03 16:20:17;;;;;;;4;1.1;;;;;;;;;;;;;
2019/10/03 16:23:27;;;;;;;1.2;1;;;;;;;;;;;;;
2019/10/03 16:25:09;;;;;;;3.8;1.3;;;;;;;;;;;;;
2019/10/03 16:30:06;;;;;;;2.3;1.4;;;;;;;;;;;;;
2019/10/03 16:32:38;;;;;;;2.7;1.5;;;;;;;;;;;;;
2019/10/03 16:35:03;;;;;;;3.5;2.1;;;;;;;;;;;;;
2019/10/03 16:37:22;;;;;;;2.7;1.8;;;;;;;;;;;;;
2019/10/03 16:40:13;;;;;;;3;2.1;;;;;;;;;;;;;
2019/10/03 16:42:11;;;;;;;2.7;1.7;;;;;;;;;;;;;
2019/10/03 16:44:41;;;;;;;3;1.6;;;;;;;;;;;;;
2019/10/03 16:47:04;;;;;;;3.7;1.7;;;;;;;;;;;;;
2019/10/03 16:51:59;;;;;;;2.8;1.2;;;;;;;;;;;;;
2019/10/03 16:54:22;;;;;;;3.4;1.4;;;;;;;;;;;;;
2019/10/03 16:56:47;;;;;;;4.8;1.6;;;;;;;;;;;;;
2019/10/03 16:59:10;;;;;;;3;1.5;;;;;;;;;;;;;
2019/10/03 17:01:49;;;;;;;2.7;1.6;;;;;;;;;;;;;
2019/10/03 17:03:58;;;;;;;3.4;2.1;;;;;;;;;;;;;
2019/10/03 17:06:28;;;;;;;4.9;2.9;;;;;;;;;;;;;
2019/10/03 17:08:52;;;;;;;4.5;2.7;;;;;;;;;;;;;
2019/10/03 17:11:16;;;;;;;4.3;2.4;;;;;;;;;;;;;
2019/10/03 17:13:41;;;;;;;9.1;2.7;;;;;;;;;;;;;
2019/10/03 17:16:05;;;;;;;6.2;2.6;;;;;;;;;;;;;
2019/10/03 17:18:31;;;;;;;4.6;2.3;;;;;;;;;;;;;
2019/10/03 17:20:56;;;;;;;4.9;2.4;;;;;;;;;;;;;
2019/10/03 17:23:28;;;;;;;4.1;2.3;;;;;;;;;;;;;
2019/10/03 17:25:48;;;;;;;3.4;2;;;;;;;;;;;;;
2019/10/03 17:28:15;;;;;;;6.7;2.3;;;;;;;;;;;;;
2019/10/03 17:30:48;;;;;;;5.4;2.2;;;;;;;;;;;;;
2019/10/03 17:33:04;;;;;;;5.4;2.1;;;;;;;;;;;;;
2019/10/03 17:35:33;;;;;;;3.3;1.7;;;;;;;;;;;;;
2019/10/03 17:37:59;;;;;;;3.5;1.7;;;;;;;;;;;;;
2019/10/03 17:40:25;;;;;;;3.9;2.1;;;;;;;;;;;;;
2019/10/03 17:42:54;;;;;;;4.1;2.3;;;;;;;;;;;;;
2019/10/03 17:45:19;;;;;;;5.4;2.2;;;;;;;;;;;;;
2019/10/03 17:47:43;;;;;;;3.1;2.1;;;;;;;;;;;;;
2019/10/03 17:50:24;;;;;;;3.9;2.1;;;;;;;;;;;;;
2019/10/03 17:52:38;;;;;;;4.8;2.4;;;;;;;;;;;;;
2019/10/03 17:55:02;;;;;;;3.1;2;;;;;;;;;;;;;
2019/10/03 17:57:29;;;;;;;5.2;2.4;;;;;;;;;;;;;
2019/10/03 17:59:56;;;;;;;3.1;1.8;;;;;;;;;;;;;
2019/10/03 18:02:21;;;;;;;11.8;7.3;;;;;;;;;;;;;
2019/10/03 18:04:55;;;;;;;10.5;7.4;;;;;;;;;;;;;
2019/10/03 18:07:13;;;;;;;8.6;6.6;;;;;;;;;;;;;
2019/10/03 18:09:38;;;;;;;12.3;8.6;;;;;;;;;;;;;
2019/10/03 18:12:02;;;;;;;8.9;6;;;;;;;;;;;;;
2019/10/03 18:14:30;;;;;;;8.5;6;;;;;;;;;;;;;
2019/10/03 18:16:52;;;;;;;9.2;6.1;;;;;;;;;;;;;
2019/10/03 18:19:27;;;;;;;6.6;4.3;;;;;;;;;;;;;
2019/10/03 18:21:52;;;;;;;5;3.6;;;;;;;;;;;;;
2019/10/03 18:24:18;;;;;;;5.2;3.8;;;;;;;;;;;;;
2019/10/03 18:26:46;;;;;;;6.3;4.2;;;;;;;;;;;;;
2019/10/03 18:30:03;;;;;;;4.2;3.2;;;;;;;;;;;;;
2019/10/03 18:32:31;;;;;;;4.6;2.3;;;;;;;;;;;;;
2019/10/03 18:34:58;;;;;;;5.4;2.4;;;;;;;;;;;;;
2019/10/03 18:37:20;;;;;;;6.6;3.7;;;;;;;;;;;;;
2019/10/03 18:39:47;;;;;;;4.7;3;;;;;;;;;;;;;
2019/10/03 18:42:12;;;;;;;5.9;2.9;;;;;;;;;;;;;
2019/10/03 18:44:45;;;;;;;4.4;2.8;;;;;;;;;;;;;
2019/10/03 18:47:10;;;;;;;5.4;3;;;;;;;;;;;;;
2019/10/03 18:49:37;;;;;;;7;3.4;;;;;;;;;;;;;
2019/10/03 18:52:05;;;;;;;6.2;3.5;;;;;;;;;;;;;
2019/10/03 18:54:26;;;;;;;4.7;3.2;;;;;;;;;;;;;
2019/10/03 18:56:51;;;;;;;10.4;6.7;;;;;;;;;;;;;
2019/10/03 18:59:16;;;;;;;7;4.2;;;;;;;;;;;;;
2019/10/03 19:01:42;;;;;;;5.6;3.6;;;;;;;;;;;;;
2019/10/03 19:04:08;;;;;;;4.7;2.5;;;;;;;;;;;;;
2019/10/03 19:06:32;;;;;;;2.9;1.9;;;;;;;;;;;;;
2019/10/03 19:09:02;;;;;;;4;1.9;;;;;;;;;;;;;
2019/10/03 19:12:07;;;;;;;3.2;1.8;;;;;;;;;;;;;
2019/10/03 19:16:42;;;;;;;3.4;1.6;;;;;;;;;;;;;
2019/10/03 19:18:54;;;;;;;4.4;1.9;;;;;;;;;;;;;
2019/10/03 19:21:12;;;;;;;4.8;1.8;;;;;;;;;;;;;
2019/10/03 19:23:35;;;;;;;4.8;1.8;;;;;;;;;;;;;
2019/10/03 19:26:09;;;;;;;3.1;1.7;;;;;;;;;;;;;
2019/10/03 19:28:34;;;;;;;3.3;1.6;;;;;;;;;;;;;
2019/10/03 19:30:58;;;;;;;2.5;1.8;;;;;;;;;;;;;
2019/10/03 19:33:24;;;;;;;2.6;1.6;;;;;;;;;;;;;
2019/10/03 19:35:52;;;;;;;4.6;2.1;;;;;;;;;;;;;
2019/10/03 19:38:29;;;;;;;4.5;2.1;;;;;;;;;;;;;
2019/10/03 19:40:41;;;;;;;5.3;3;;;;;;;;;;;;;
2019/10/03 19:43:12;;;;;;;5.3;3.3;;;;;;;;;;;;;
2019/10/03 19:45:34;;;;;;;6.2;3.2;;;;;;;;;;;;;
2019/10/03 19:47:56;;;;;;;3.4;1.8;;;;;;;;;;;;;
2019/10/03 19:50:25;;;;;;;4.7;1.9;;;;;;;;;;;;;
2019/10/03 19:52:48;;;;;;;5.6;1.7;;;;;;;;;;;;;
2019/10/03 19:55:15;;;;;;;4.1;1.9;;;;;;;;;;;;;
2019/10/03 19:57:45;;;;;;;3.5;1.9;;;;;;;;;;;;;
2019/10/03 20:00:08;;;;;;;5.3;2.2;;;;;;;;;;;;;
2019/10/03 20:05:03;;;;;;;5.4;2.7;;;;;;;;;;;;;
2019/10/03 20:07:29;;;;;;;3.6;1.9;;;;;;;;;;;;;
2019/10/03 20:12:39;;;;;;;5.8;2;;;;;;;;;;;;;
2019/10/03 20:15:02;;;;;;;5.1;1.6;;;;;;;;;;;;;
2019/10/03 20:17:32;;;;;;;4;1.9;;;;;;;;;;;;;
2019/10/03 20:20:08;;;;;;;3.2;2.1;;;;;;;;;;;;;
2019/10/03 20:22:25;;;;;;;5.8;3.4;;;;;;;;;;;;;
2019/10/03 20:27:14;;;;;;;6.6;2.7;;;;;;;;;;;;;
2019/10/03 20:29:40;;;;;;;4.6;2.6;;;;;;;;;;;;;
2019/10/03 20:32:09;;;;;;;5.2;2.6;;;;;;;;;;;;;
2019/10/03 20:34:35;;;;;;;6.1;2.5;;;;;;;;;;;;;
2019/10/03 20:37:01;;;;;;;6.2;2.6;;;;;;;;;;;;;
2019/10/03 20:41:53;;;;;;;4.3;2.1;;;;;;;;;;;;;
2019/10/03 21:53:56;;;;;;;5.1;2.4;;;;;;;;;;;;;
2019/10/03 21:56:20;;;;;;;6.7;3.2;;;;;;;;;;;;;
2019/10/03 21:58:49;;;;;;;5.6;4.3;;;;;;;;;;;;;
2019/10/03 22:01:11;;;;;;;9.8;3.3;;;;;;;;;;;;;
2019/10/03 22:06:00;;;;;;;6;3.1;;;;;;;;;;;;;
2019/10/03 22:08:27;;;;;;;5.5;2.9;;;;;;;;;;;;;
2019/10/03 22:10:57;;;;;;;7.9;2.8;;;;;;;;;;;;;